createdAt,value
2023-03-06T00:00:51.323Z,59.50
2023-03-06T00:03:19.088Z,59.98
2023-03-06T00:05:48.266Z,59.99
2023-03-06T00:08:16.617Z,59.24
2023-03-06T00:10:44.521Z,59.24
2023-03-06T00:13:14.685Z,59.65
2023-03-06T00:15:43.418Z,60.12
2023-03-06T00:18:11.100Z,59.13
2023-03-06T00:20:41.017Z,59.01
2023-03-06T00:23:11.066Z,59.06
2023-03-06T00:25:39.115Z,59.22
2023-03-06T00:28:06.975Z,59.54
2023-03-06T00:30:34.914Z,59.30
2023-03-06T00:33:02.580Z,58.65
2023-03-06T00:35:30.297Z,59.06
2023-03-06T00:37:59.987Z,59.78
2023-03-06T00:40:28.850Z,59.67
2023-03-06T00:42:56.566Z,58.87
2023-03-06T00:45:24.663Z,58.83
2023-03-06T00:47:52.355Z,59.07
2023-03-06T00:50:20.091Z,58.21
2023-03-06T00:52:47.987Z,58.94
2023-03-06T00:55:15.707Z,58.96
2023-03-06T00:57:44.743Z,59.04
2023-03-06T01:00:14.199Z,59.10
2023-03-06T01:02:42.342Z,58.92
2023-03-06T01:05:10.864Z,58.34
2023-03-06T01:07:38.878Z,59.45
2023-03-06T01:10:07.869Z,59.04
2023-03-06T01:12:35.535Z,58.32
2023-03-06T01:15:05.563Z,58.34
2023-03-06T01:17:33.301Z,58.96
2023-03-06T01:20:00.975Z,58.23
2023-03-06T01:22:28.945Z,59.17
2023-03-06T01:24:56.613Z,58.09
2023-03-06T01:27:24.385Z,58.21
2023-03-06T01:29:52.211Z,58.79
2023-03-06T01:32:21.617Z,58.10
2023-03-06T01:34:49.652Z,58.06
2023-03-06T01:37:17.664Z,58.55
2023-03-06T01:39:45.554Z,58.23
2023-03-06T01:42:13.312Z,57.99
2023-03-06T01:45:00.040Z,58.21
2023-03-06T01:47:29.397Z,58.27
2023-03-06T01:49:58.758Z,57.77
2023-03-06T01:52:30.580Z,58.05
2023-03-06T01:55:03.460Z,58.72
2023-03-06T01:57:35.719Z,57.94
2023-03-06T02:00:08.181Z,58.38
2023-03-06T02:02:38.428Z,58.32
2023-03-06T02:05:07.258Z,58.62
2023-03-06T02:07:35.865Z,58.15
2023-03-06T02:10:04.246Z,58.02
2023-03-06T02:12:32.313Z,59.06
2023-03-06T02:15:00.254Z,58.30
2023-03-06T02:17:29.024Z,58.10
2023-03-06T02:20:04.712Z,57.78
2023-03-06T02:22:38.823Z,58.55
2023-03-06T02:25:15.034Z,58.79
2023-03-06T02:27:44.539Z,58.98
2023-03-06T02:30:17.522Z,57.71
2023-03-06T02:32:45.546Z,58.20
2023-03-06T02:35:19.775Z,58.78
2023-03-06T02:37:48.301Z,58.34
2023-03-06T02:40:18.252Z,58.94
2023-03-06T02:42:51.998Z,58.72
2023-03-06T02:45:27.064Z,58.37
2023-03-06T02:47:55.174Z,59.13
2023-03-06T02:50:22.846Z,59.08
2023-03-06T02:52:50.526Z,58.12
2023-03-06T02:55:18.600Z,58.76
2023-03-06T02:57:46.477Z,59.21
2023-03-06T03:00:17.190Z,58.92
2023-03-06T03:02:45.664Z,58.83
2023-03-06T03:05:13.963Z,59.17
2023-03-06T03:07:41.648Z,59.21
2023-03-06T03:10:11.036Z,58.27
2023-03-06T03:12:38.789Z,58.83
2023-03-06T03:15:07.587Z,58.59
2023-03-06T03:17:38.744Z,58.80
2023-03-06T03:20:09.399Z,58.16
2023-03-06T03:22:37.078Z,59.28
2023-03-06T03:25:05.584Z,59.30
2023-03-06T03:27:33.277Z,58.11
2023-03-06T03:30:01.493Z,58.38
2023-03-06T03:32:29.626Z,58.37
2023-03-06T03:34:58.662Z,58.53
2023-03-06T03:37:26.341Z,58.94
2023-03-06T03:39:54.362Z,58.87
2023-03-06T03:42:21.995Z,59.51
2023-03-06T03:44:49.693Z,58.61
2023-03-06T03:47:17.822Z,59.00
2023-03-06T03:49:45.697Z,58.74
2023-03-06T03:52:14.734Z,59.01
2023-03-06T03:54:43.034Z,59.21
2023-03-06T03:57:10.684Z,58.40
2023-03-06T03:59:38.346Z,59.10
2023-03-06T04:02:06.536Z,58.68
2023-03-06T04:04:34.230Z,59.19
2023-03-06T04:07:01.928Z,59.31
2023-03-06T04:09:31.332Z,58.58
2023-03-06T04:11:58.989Z,58.60
2023-03-06T04:14:26.812Z,59.25
2023-03-06T04:16:54.900Z,59.18
2023-03-06T04:19:22.581Z,58.77
2023-03-06T04:21:50.372Z,58.65
2023-03-06T04:24:18.332Z,59.57
2023-03-06T04:26:47.359Z,58.26
2023-03-06T04:29:15.049Z,58.92
2023-03-06T04:31:43.205Z,58.52
2023-03-06T04:34:10.862Z,59.17
2023-03-06T04:36:38.573Z,59.11
2023-03-06T04:39:06.568Z,58.65
2023-03-06T04:41:34.319Z,58.95
2023-03-06T04:44:03.728Z,59.51
2023-03-06T04:46:31.668Z,59.65
2023-03-06T04:48:59.416Z,59.61
2023-03-06T04:51:27.653Z,59.76
2023-03-06T04:53:55.316Z,59.69
2023-03-06T04:56:23.262Z,58.62
2023-03-06T04:58:51.296Z,59.67
2023-03-06T05:01:20.543Z,59.42
2023-03-06T05:03:49.993Z,59.64
2023-03-06T05:06:17.655Z,59.65
2023-03-06T05:08:45.353Z,59.05
2023-03-06T05:11:13.365Z,59.80
2023-03-06T05:13:41.025Z,58.91
2023-03-06T05:16:09.893Z,59.67
2023-03-06T05:18:39.521Z,59.44
2023-03-06T05:21:07.988Z,60.28
2023-03-06T05:23:38.400Z,59.53
2023-03-06T05:26:08.670Z,59.81
2023-03-06T05:28:36.892Z,60.48
2023-03-06T05:31:04.759Z,59.41
2023-03-06T05:33:33.443Z,60.07
2023-03-06T05:36:02.492Z,59.52
2023-03-06T05:38:30.369Z,59.72
2023-03-06T05:40:58.282Z,59.55
2023-03-06T05:43:25.955Z,60.46
2023-03-06T05:46:01.742Z,64.40
2023-03-06T05:48:29.435Z,64.75
2023-03-06T05:50:57.996Z,61.11
2023-03-06T05:53:28.030Z,59.55
2023-03-06T05:55:59.773Z,59.34
2023-03-06T05:58:27.522Z,59.06
2023-03-06T06:00:55.546Z,58.62
2023-03-06T06:03:23.855Z,58.59
2023-03-06T06:05:52.111Z,58.46
2023-03-06T06:08:20.274Z,58.54
2023-03-06T06:10:51.010Z,58.11
2023-03-06T06:13:20.777Z,58.17
2023-03-06T06:15:48.467Z,58.44
2023-03-06T06:18:16.194Z,58.51
2023-03-06T06:20:44.096Z,58.92
2023-03-06T06:23:12.357Z,58.25
2023-03-06T06:25:40.288Z,59.11
2023-03-06T06:28:09.501Z,58.21
2023-03-06T06:30:37.223Z,59.58
2023-03-06T06:33:04.893Z,58.85
2023-03-06T06:35:37.097Z,59.88
2023-03-06T06:38:04.887Z,58.68
2023-03-06T06:40:32.560Z,59.03
2023-03-06T06:43:00.516Z,59.68
2023-03-06T06:45:29.551Z,59.61
2023-03-06T06:47:57.410Z,59.39
2023-03-06T06:50:25.251Z,59.38
2023-03-06T06:52:52.940Z,59.57
2023-03-06T06:55:20.612Z,59.23
2023-03-06T06:57:48.592Z,59.75
2023-03-06T07:00:17.903Z,59.91
2023-03-06T07:02:49.461Z,59.51
2023-03-06T07:05:17.296Z,59.17
2023-03-06T07:07:44.997Z,60.28
2023-03-06T07:10:15.550Z,59.80
2023-03-06T07:12:43.471Z,59.41
2023-03-06T07:15:14.524Z,60.41
2023-03-06T07:17:42.395Z,59.39
2023-03-06T07:20:12.878Z,59.73
2023-03-06T07:22:50.436Z,59.85
2023-03-06T07:25:19.094Z,59.81
2023-03-06T07:27:52.790Z,59.60
2023-03-06T07:30:21.772Z,60.07
2023-03-06T07:32:49.464Z,60.26
2023-03-06T07:35:20.499Z,60.16
2023-03-06T07:37:48.727Z,59.74
2023-03-06T07:40:16.410Z,60.41
2023-03-06T07:42:44.176Z,60.08
2023-03-06T07:45:13.115Z,59.85
2023-03-06T07:47:41.218Z,60.70
2023-03-06T07:50:09.756Z,60.77
2023-03-06T07:52:39.169Z,59.78
2023-03-06T07:55:07.940Z,60.13
2023-03-06T07:57:35.612Z,60.45
2023-03-06T08:00:03.885Z,59.74
2023-03-06T08:02:31.564Z,59.84
2023-03-06T08:04:59.267Z,60.05
2023-03-06T08:07:27.507Z,60.86
2023-03-06T08:09:56.543Z,59.47
2023-03-06T08:12:24.251Z,60.43
2023-03-06T08:14:52.521Z,59.60
2023-03-06T08:17:20.249Z,59.41
2023-03-06T08:19:47.902Z,60.11
2023-03-06T08:22:16.106Z,60.89
2023-03-06T08:24:43.748Z,59.42
2023-03-06T08:27:12.768Z,59.34
2023-03-06T08:29:40.621Z,59.34
2023-03-06T08:32:12.617Z,58.92
2023-03-06T08:34:43.038Z,59.10
2023-03-06T08:37:10.713Z,57.97
2023-03-06T08:39:38.379Z,59.28
2023-03-06T08:42:06.613Z,58.54
2023-03-06T08:44:35.639Z,58.30
2023-03-06T08:47:04.466Z,58.01
2023-03-06T08:49:32.169Z,57.13
2023-03-06T08:51:59.821Z,56.83
2023-03-06T08:54:27.456Z,56.51
2023-03-06T08:56:55.830Z,56.75
2023-03-06T08:59:24.777Z,57.28
2023-03-06T09:01:54.213Z,56.75
2023-03-06T09:04:22.888Z,56.85
2023-03-06T09:06:50.809Z,57.64
2023-03-06T09:09:18.650Z,57.22
2023-03-06T09:11:46.498Z,56.95
2023-03-06T09:14:14.458Z,57.37
2023-03-06T09:16:42.199Z,57.63
2023-03-06T09:19:11.991Z,57.09
2023-03-06T09:21:39.740Z,56.73
2023-03-06T09:24:07.898Z,56.55
2023-03-06T09:26:45.525Z,56.24
2023-03-06T09:29:16.263Z,57.31
2023-03-06T09:31:44.837Z,56.84
2023-03-06T09:34:14.117Z,57.39
2023-03-06T09:36:55.263Z,56.99
2023-03-06T09:39:25.884Z,56.98
2023-03-06T09:41:54.469Z,57.73
2023-03-06T09:44:26.491Z,56.93
2023-03-06T09:47:24.030Z,57.22
2023-03-06T09:50:13.244Z,57.66
2023-03-06T09:52:47.659Z,56.79
2023-03-06T09:55:20.467Z,57.03
2023-03-06T09:57:55.825Z,56.66
2023-03-06T10:00:30.404Z,57.53
2023-03-06T10:03:07.033Z,57.37
2023-03-06T10:05:42.011Z,56.76
2023-03-06T10:08:21.466Z,56.45
2023-03-06T10:10:55.713Z,57.03
2023-03-06T10:13:29.866Z,56.40
2023-03-06T10:16:08.231Z,56.48
2023-03-06T10:19:13.160Z,56.58
2023-03-06T10:21:54.069Z,56.18
2023-03-06T10:24:32.237Z,56.36
2023-03-06T10:27:04.699Z,56.18
2023-03-06T10:29:56.371Z,56.93
2023-03-06T10:32:47.508Z,56.47
2023-03-06T10:35:20.616Z,56.50
2023-03-06T10:37:51.194Z,56.37
2023-03-06T10:40:35.910Z,56.17
2023-03-06T10:43:11.427Z,56.53
2023-03-06T10:45:49.957Z,56.54
2023-03-06T10:48:22.591Z,55.73
2023-03-06T10:50:51.114Z,55.22
2023-03-06T10:53:26.635Z,55.07
2023-03-06T10:55:57.045Z,55.20
2023-03-06T10:58:28.441Z,55.09
2023-03-06T11:01:08.343Z,54.25
2023-03-06T11:03:37.224Z,53.50
2023-03-06T11:06:11.565Z,53.70
2023-03-06T11:08:44.015Z,53.36
2023-03-06T11:11:15.908Z,52.94
2023-03-06T11:13:59.168Z,52.67
2023-03-06T11:16:30.631Z,52.92
2023-03-06T11:19:00.787Z,52.21
2023-03-06T11:21:31.764Z,52.44
2023-03-06T11:24:08.017Z,53.09
2023-03-06T11:26:44.928Z,52.91
2023-03-06T11:29:38.718Z,51.30
2023-03-06T11:32:13.747Z,51.86
2023-03-06T11:34:50.597Z,52.33
2023-03-06T11:37:30.546Z,51.38
2023-03-06T11:40:08.387Z,50.79
2023-03-06T11:42:40.803Z,50.41
2023-03-06T11:45:21.207Z,50.70
2023-03-06T11:47:54.356Z,50.16
2023-03-06T11:50:31.322Z,50.43
2023-03-06T11:53:01.793Z,49.16
2023-03-06T11:55:46.109Z,50.48
2023-03-06T11:58:40.892Z,49.15
2023-03-06T12:01:14.701Z,49.01
2023-03-06T12:04:21.377Z,50.59
2023-03-06T12:06:57.900Z,50.22
2023-03-06T12:09:33.359Z,49.73
2023-03-06T12:15:08.612Z,50.18
2023-03-06T12:17:55.125Z,49.83
2023-03-06T12:20:49.765Z,49.26
2023-03-06T12:23:32.867Z,49.23
2023-03-06T12:26:07.760Z,49.23
2023-03-06T12:28:53.986Z,49.52
2023-03-06T12:31:47.566Z,49.01
2023-03-06T12:34:27.198Z,48.46
2023-03-06T12:37:05.590Z,49.93
2023-03-06T12:39:47.062Z,47.93
2023-03-06T12:42:36.274Z,48.32
2023-03-06T12:45:28.990Z,48.25
2023-03-06T12:47:58.304Z,48.25
2023-03-06T12:50:29.331Z,48.79
2023-03-06T12:53:00.167Z,48.90
2023-03-06T12:55:28.533Z,49.09
2023-03-06T12:57:56.958Z,48.98
2023-03-06T13:01:06.065Z,49.35
2023-03-06T13:03:52.970Z,48.71
2023-03-06T13:06:36.614Z,49.21
2023-03-06T13:09:19.671Z,49.41
2023-03-06T13:12:16.567Z,49.37
2023-03-06T13:14:59.306Z,48.93
2023-03-06T13:17:37.962Z,49.10
2023-03-06T13:20:37.932Z,49.13
2023-03-06T13:23:42.860Z,48.73
2023-03-06T13:26:33.448Z,49.43
2023-03-06T13:29:02.088Z,49.69
2023-03-06T13:31:51.722Z,49.82
2023-03-06T13:37:54.685Z,49.20
2023-03-06T13:40:35.682Z,49.01
2023-03-06T13:43:27.543Z,48.58
2023-03-06T13:45:55.592Z,48.63
2023-03-06T13:48:44.194Z,48.17
2023-03-06T13:51:23.333Z,48.33
2023-03-06T13:54:28.524Z,47.30
2023-03-06T13:57:43.898Z,48.20
2023-03-06T14:00:48.999Z,46.81
2023-03-06T14:03:58.527Z,47.07
2023-03-06T14:06:43.101Z,47.75
2023-03-06T14:09:23.671Z,44.85
2023-03-06T14:11:55.706Z,45.27
2023-03-06T14:14:33.618Z,44.13
2023-03-06T14:17:05.827Z,45.86
2023-03-06T14:19:38.650Z,44.96
2023-03-06T14:22:14.784Z,44.59
2023-03-06T14:24:52.964Z,45.61
2023-03-06T14:27:21.772Z,45.64
2023-03-06T14:29:49.914Z,45.98
2023-03-06T14:32:23.745Z,44.34
2023-03-06T14:34:51.635Z,44.73
2023-03-06T14:37:22.750Z,44.92
2023-03-06T14:39:50.836Z,45.06
2023-03-06T14:42:20.956Z,45.01
2023-03-06T14:44:50.097Z,44.86
2023-03-06T14:47:29.643Z,45.19
2023-03-06T14:50:21.529Z,45.04
2023-03-06T14:52:49.942Z,45.42
2023-03-06T14:55:20.828Z,46.64
2023-03-06T14:57:52.244Z,44.59
2023-03-06T15:00:24.249Z,44.51
2023-03-06T15:02:57.590Z,44.13
2023-03-06T15:05:28.993Z,43.78
2023-03-06T15:08:02.868Z,44.58
2023-03-06T15:10:33.195Z,44.63
2023-03-06T15:13:10.523Z,45.30
2023-03-06T15:15:38.437Z,45.15
2023-03-06T15:18:29.475Z,45.17
2023-03-06T15:21:08.739Z,45.22
2023-03-06T15:23:39.240Z,44.92
2023-03-06T15:26:23.905Z,45.41
2023-03-06T15:29:08.967Z,45.93
2023-03-06T15:31:38.994Z,44.88
2023-03-06T15:34:23.879Z,45.27
2023-03-06T15:36:56.787Z,44.87
2023-03-06T15:39:37.230Z,45.47
2023-03-06T15:42:19.253Z,44.58
2023-03-06T15:44:53.233Z,43.72
2023-03-06T15:47:22.044Z,42.97
2023-03-06T15:52:42.496Z,42.63
2023-03-06T15:55:13.643Z,43.22
2023-03-06T15:57:49.385Z,43.37
2023-03-06T16:00:27.961Z,44.06
2023-03-06T16:02:56.807Z,43.62
2023-03-06T16:05:27.596Z,43.48
2023-03-06T16:07:55.881Z,42.98
2023-03-06T16:10:27.599Z,42.91
2023-03-06T16:12:57.438Z,42.48
2023-03-06T16:15:29.633Z,42.43
2023-03-06T16:17:57.937Z,41.60
2023-03-06T16:20:29.845Z,42.92
2023-03-06T16:22:58.027Z,42.32
2023-03-06T16:25:28.724Z,42.29
2023-03-06T16:27:59.767Z,42.85
2023-03-06T16:30:30.109Z,43.01
2023-03-06T16:32:58.726Z,42.65
2023-03-06T16:35:28.812Z,42.60
2023-03-06T16:37:57.040Z,43.05
2023-03-06T16:40:27.123Z,42.79
2023-03-06T16:42:56.041Z,42.82
2023-03-06T16:45:25.620Z,42.38
2023-03-06T16:47:54.397Z,42.72
2023-03-06T16:50:25.704Z,42.99
2023-03-06T16:53:09.908Z,42.78
2023-03-06T16:55:38.267Z,43.25
2023-03-06T16:58:06.301Z,42.75
2023-03-06T17:00:34.267Z,42.67
2023-03-06T17:03:03.360Z,43.10
2023-03-06T17:05:34.290Z,43.24
2023-03-06T17:08:02.495Z,43.17
2023-03-06T17:10:33.416Z,43.23
2023-03-06T17:13:01.568Z,43.33
2023-03-06T17:15:29.589Z,43.20
2023-03-06T17:17:58.458Z,43.59
2023-03-06T17:20:26.438Z,42.99
2023-03-06T17:22:54.569Z,43.15
2023-03-06T17:25:23.057Z,42.85
2023-03-06T17:27:52.475Z,43.32
2023-03-06T17:30:20.675Z,43.51
2023-03-06T17:32:49.305Z,43.45
2023-03-06T17:35:17.498Z,43.25
2023-03-06T17:37:45.581Z,43.42
2023-03-06T17:40:16.270Z,43.30
2023-03-06T17:42:44.355Z,43.49
2023-03-06T17:45:13.920Z,44.39
2023-03-06T17:47:42.621Z,44.80
2023-03-06T17:50:12.025Z,45.45
2023-03-06T17:52:40.060Z,45.23
2023-03-06T17:55:09.619Z,45.91
2023-03-06T17:57:37.706Z,47.39
2023-03-06T18:00:07.154Z,49.45
2023-03-06T18:02:37.402Z,49.66
2023-03-06T18:05:05.967Z,50.66
2023-03-06T18:07:34.051Z,50.41
2023-03-06T18:10:02.585Z,51.74
2023-03-06T18:12:30.631Z,53.29
2023-03-06T18:14:58.685Z,53.00
2023-03-06T18:17:27.398Z,53.25
2023-03-06T18:19:57.088Z,52.93
2023-03-06T18:22:25.223Z,54.08
2023-03-06T18:24:53.529Z,55.06
2023-03-06T18:27:21.953Z,54.75
2023-03-06T18:29:52.215Z,55.02
2023-03-06T18:32:20.530Z,56.45
2023-03-06T18:34:50.678Z,55.42
2023-03-06T18:37:20.453Z,56.12
2023-03-06T18:39:48.646Z,56.33
2023-03-06T18:42:16.936Z,56.43
2023-03-06T18:44:48.023Z,56.23
2023-03-06T18:47:16.456Z,58.12
2023-03-06T18:49:46.219Z,57.21
2023-03-06T18:52:14.579Z,58.28
2023-03-06T18:54:44.087Z,58.17
2023-03-06T18:57:12.370Z,57.59
2023-03-06T18:59:40.941Z,58.02
2023-03-06T19:02:09.574Z,58.09
2023-03-06T19:04:38.388Z,58.25
2023-03-06T19:07:06.916Z,58.29
2023-03-06T19:09:35.031Z,58.45
2023-03-06T19:12:04.892Z,59.18
2023-03-06T19:14:33.106Z,59.29
2023-03-06T19:17:01.913Z,59.38
2023-03-06T19:19:29.903Z,59.53
2023-03-06T19:21:59.445Z,58.83
2023-03-06T19:24:27.791Z,58.84
2023-03-06T19:26:55.545Z,60.23
2023-03-06T19:29:25.530Z,59.28
2023-03-06T19:31:53.293Z,59.16
2023-03-06T19:34:21.529Z,59.44
2023-03-06T19:36:52.150Z,60.45
2023-03-06T19:39:20.215Z,59.78
2023-03-06T19:41:48.752Z,60.47
2023-03-06T19:44:18.101Z,59.64
2023-03-06T19:46:47.574Z,60.01
2023-03-06T19:49:18.708Z,60.60
2023-03-06T19:51:47.053Z,60.38
2023-03-06T19:54:15.535Z,60.06
2023-03-06T19:56:44.230Z,60.21
2023-03-06T19:59:12.325Z,61.05
2023-03-06T20:01:40.662Z,61.27
2023-03-06T20:04:10.850Z,60.55
2023-03-06T20:06:39.194Z,61.46
2023-03-06T20:09:09.493Z,61.35
2023-03-06T20:11:37.784Z,61.78
2023-03-06T20:14:07.743Z,61.03
2023-03-06T20:16:37.893Z,62.11
2023-03-06T20:19:07.142Z,62.46
2023-03-06T20:21:38.512Z,62.15
2023-03-06T20:24:07.626Z,62.60
2023-03-06T20:26:36.999Z,62.45
2023-03-06T20:29:06.141Z,62.00
2023-03-06T20:31:34.666Z,62.60
2023-03-06T20:34:02.937Z,63.43
2023-03-06T20:36:32.928Z,63.84
2023-03-06T20:39:03.936Z,63.49
2023-03-06T20:41:33.145Z,63.24
2023-03-06T20:44:01.707Z,64.01
2023-03-06T20:46:30.375Z,65.02
2023-03-06T20:49:00.212Z,64.61
2023-03-06T20:51:30.265Z,64.13
2023-03-06T20:53:59.199Z,63.85
2023-03-06T20:56:31.191Z,64.28
2023-03-06T20:58:59.674Z,64.22
2023-03-06T21:01:29.072Z,64.69
2023-03-06T21:03:58.584Z,64.93
2023-03-06T21:06:29.015Z,64.54
2023-03-06T21:08:58.084Z,65.16
2023-03-06T21:11:26.907Z,64.68
2023-03-06T21:13:56.556Z,63.73
2023-03-06T21:16:25.267Z,64.23
2023-03-06T21:18:55.807Z,64.50
2023-03-06T21:21:25.886Z,64.73
2023-03-06T21:23:53.813Z,64.32
2023-03-06T21:26:23.448Z,64.28
2023-03-06T21:28:51.183Z,63.87
2023-03-06T21:31:22.384Z,64.24
2023-03-06T21:33:51.483Z,64.67
2023-03-06T21:36:21.479Z,64.13
2023-03-06T21:38:51.497Z,64.43
2023-03-06T21:41:21.800Z,64.28
2023-03-06T21:43:49.911Z,65.19
2023-03-06T21:46:18.141Z,65.61
2023-03-06T21:48:47.339Z,65.37
2023-03-06T21:51:18.645Z,64.95
2023-03-06T21:53:48.376Z,65.18
2023-03-06T21:56:18.844Z,65.34
2023-03-06T21:58:46.793Z,64.57
2023-03-06T22:01:18.000Z,65.19
2023-03-06T22:03:47.717Z,64.94
2023-03-06T22:06:18.156Z,64.94
2023-03-06T22:08:46.804Z,65.61
2023-03-06T22:11:17.011Z,64.51
2023-03-06T22:13:45.341Z,65.36
2023-03-06T22:16:13.880Z,65.41
2023-03-06T22:18:46.209Z,65.18
2023-03-06T22:21:17.676Z,65.22
2023-03-06T22:23:50.099Z,65.54
2023-03-06T22:26:18.873Z,65.72
2023-03-06T22:28:46.855Z,65.23
2023-03-06T22:31:18.234Z,65.56
2023-03-06T22:33:46.428Z,65.40
2023-03-06T22:36:17.164Z,65.25
2023-03-06T22:38:47.666Z,65.75
2023-03-06T22:41:17.996Z,65.34
2023-03-06T22:43:46.039Z,65.51
2023-03-06T22:46:16.433Z,65.57
2023-03-06T22:48:44.890Z,65.40
2023-03-06T22:51:16.478Z,65.61
2023-03-06T22:53:45.160Z,65.17
2023-03-06T22:56:16.576Z,64.66
2023-03-06T22:58:44.990Z,65.85
2023-03-06T23:01:15.987Z,65.91
2023-03-06T23:03:46.660Z,65.40
2023-03-06T23:06:17.869Z,65.69
2023-03-06T23:08:50.915Z,65.58
2023-03-06T23:11:20.154Z,65.55
2023-03-06T23:13:48.280Z,65.33
2023-03-06T23:16:16.990Z,65.45
2023-03-06T23:18:45.131Z,65.50
2023-03-06T23:21:17.514Z,65.65
2023-03-06T23:23:49.488Z,65.65
2023-03-06T23:26:19.720Z,65.90
2023-03-06T23:28:48.175Z,66.00
2023-03-06T23:31:18.401Z,66.24
2023-03-06T23:33:47.197Z,65.69
2023-03-06T23:36:18.466Z,65.87
2023-03-06T23:38:47.603Z,66.04
2023-03-06T23:41:18.134Z,66.13
2023-03-06T23:43:47.317Z,65.93
2023-03-06T23:46:16.207Z,65.50
2023-03-06T23:48:45.405Z,66.03
2023-03-06T23:51:18.139Z,65.78
2023-03-06T23:53:47.386Z,65.70
2023-03-06T23:56:15.707Z,65.22
2023-03-06T23:58:44.445Z,65.20
